Dayton, Tennessee
Current Conditions -  °F | °C
As of 12:55 AM on Wednesday 22 Oct 2014 (Local Time) from KRZR Reporting Station
Clear Clear  
Wind Chill: 45°   Ceiling: Unl
Heat Index: 48°   Visibility: 10mi
Dew Point: 43°   Wind: 7mph
Humidity: 82%   Direction: 20°NNE
Pressure: 30.09"   Gusts: NA
Location:  35.49°N, 85.01°W
Report Text: KRZR 220455Z AUTO 02006KT 10SM CLR 09/06 A3009 RMK
Loading
Personal Weather Stations






























Interactive Weather Map New forecast layout! Learn more

10-Day Weather Forecast

Advertisements
Track Severe Weather on mobile